Overseas Mindoro — V7RE6 — position and weather

sailwx.info

Track history (hours):
 
Tides and Currents Weather Stations Pressure Air Temp Water Temp Dewpoint Dewpoint Depression Visibility Wind Speed Wind Dir Waves Ship Positions

Overseas Mindoro

Last reported at 2015-Jan-22 07:04 UTC. Time now 2015-Jan-31 04:02 UTC.
Position N 30°10' W 118°27'.
Warning: this ship's position is 8 days out of date.

Length 238 m; draft 8.2 m.

Type: Tanker. MMSI: 538003473.

Date/timePositionNaut miles runAvg speedWind from/ knotsBaromVisibWave heightAir tempDewpointWater temp
2015-Jan-22 07:04N 30°10' W 118°27'814.6
2015-Jan-22 06:33N 30°17' W 118°31'1414.3
2015-Jan-22 05:33N 30°29' W 118°40'1514.7
2015-Jan-22 04:33N 30°42' W 118°48'1414.0
2015-Jan-22 03:33N 30°54' W 118°57'2613.0
2015-Jan-22 01:31N 31°16' W 119°12'3214.6
2015-Jan-21 23:20N 31°44' W 119°32'914.4
2015-Jan-21 22:42N 31°52' W 119°37'3614.4
2015-Jan-21 20:12N 32°21' W 120°02'6913.6
2015-Jan-21 15:06N 33°22' W 120°42'5614.2
2015-Jan-21 11:09N 34°12' W 121°11'5514.2
2015-Jan-21 07:16N 35°02' W 121°38'3014.3
2015-Jan-21 05:11N 35°30' W 121°52'3814.5
2015-Jan-21 02:33N 36°05' W 122°10'1414.0
2015-Jan-21 01:33N 36°18' W 122°18'1414.5
2015-Jan-21 00:33N 36°31' W 122°24'1414.3
2015-Jan-20 23:33N 36°44' W 122°31'1414.1
2015-Jan-20 22:33N 36°57' W 122°38'1514.5
2015-Jan-20 21:33N 37°11' W 122°44'1514.3
2015-Jan-20 20:30N 37°26' W 122°43'1314.1
2015-Jan-20 19:33N 37°40' W 122°43'1110.7
2015-Jan-20 18:33N 37°47' W 122°34'9 9.4
2015-Jan-20 17:33N 37°48' W 122°22'3 3.0
2015-Jan-20 16:31N 37°45' W 122°21'0 0.0
2015-Jan-20 15:31N 37°45' W 122°21'0 0.0
2015-Jan-20 14:31N 37°45' W 122°21'0 0.2
2015-Jan-20 13:31N 37°45' W 122°21'0 0.0
2015-Jan-20 12:31N 37°45' W 122°21'0 0.2
2015-Jan-20 11:33N 37°45' W 122°21'0 0.2
2015-Jan-20 10:32N 37°45' W 122°21'0 0.1
2015-Jan-20 09:32N 37°45' W 122°21'0 0.2
2015-Jan-20 08:32N 37°45' W 122°21'0 0.0
2015-Jan-20 07:32N 37°45' W 122°21'0 0.0
2015-Jan-20 06:32N 37°45' W 122°20'0 0.0
2015-Jan-20 05:32N 37°45' W 122°20'0 0.0
2015-Jan-20 04:26N 37°45' W 122°21'0 0.0
2015-Jan-20 03:23N 37°45' W 122°21'0 0.2
2015-Jan-20 02:18N 37°45' W 122°21'0 0.1
2015-Jan-20 01:32N 37°45' W 122°21'1 0.6
2015-Jan-20 00:34N 37°46' W 122°21'1312.5
2015-Jan-19 23:33N 37°57' W 122°27'1413.5
2015-Jan-19 22:33N 38°03' W 122°11'3 2.7
2015-Jan-19 21:27N 38°02' W 122°08'0 0.0
2015-Jan-19 20:33N 38°02' W 122°08'0 0.0
2015-Jan-19 19:09N 38°02' W 122°08'0 0.0
2015-Jan-19 18:27N 38°02' W 122°08'0 0.0
2015-Jan-19 17:27N 38°02' W 122°08'0 0.0
2015-Jan-19 16:15N 38°02' W 122°08'0 0.0
2015-Jan-19 15:27N 38°02' W 122°08'0 0.0
2015-Jan-19 14:33N 38°02' W 122°08'0 0.0
2015-Jan-19 13:27N 38°02' W 122°08'0 0.0
2015-Jan-19 12:33N 38°02' W 122°08'0 0.0
2015-Jan-19 10:15N 38°02' W 122°08'0 0.0
2015-Jan-19 09:33N 38°02' W 122°08'0 0.0
2015-Jan-19 08:33N 38°02' W 122°08'0 0.0
2015-Jan-19 07:33N 38°02' W 122°08'0 0.0
2015-Jan-19 06:33N 38°02' W 122°08'0 0.0
2015-Jan-19 05:21N 38°02' W 122°08'0 0.0
2015-Jan-19 04:33N 38°02' W 122°08'0 0.0
2015-Jan-19 03:27N 38°02' W 122°08'0 0.0
2015-Jan-19 02:33N 38°02' W 122°08'0 0.0
2015-Jan-19 01:33N 38°02' W 122°08'0 0.0
2015-Jan-19 00:33N 38°02' W 122°08'0 0.0
2015-Jan-18 23:33N 38°02' W 122°08'0 0.0
2015-Jan-18 22:33N 38°02' W 122°08'0 0.0
2015-Jan-18 21:33N 38°02' W 122°08'0 0.0
2015-Jan-18 20:33N 38°02' W 122°08'0 0.0
2015-Jan-18 19:21N 38°02' W 122°08'0 0.0
2015-Jan-18 18:33N 38°02' W 122°08'0 0.0
2015-Jan-18 17:21N 38°02' W 122°08'0 0.0
2015-Jan-18 16:21N 38°02' W 122°08'0 0.0
2015-Jan-18 15:27N 38°02' W 122°08'0 0.0
2015-Jan-18 14:27N 38°02' W 122°08'0 0.0
2015-Jan-18 13:33N 38°02' W 122°08'0 0.0
2015-Jan-18 12:21N 38°02' W 122°08'0 0.0
2015-Jan-18 11:27N 38°02' W 122°08'0 0.0
2015-Jan-18 09:33N 38°02' W 122°08'0 0.0
2015-Jan-18 08:15N 38°02' W 122°08'0 0.0
2015-Jan-18 06:21N 38°02' W 122°08'0 0.0
2015-Jan-18 02:21N 38°02' W 122°08'0 0.0
2015-Jan-18 00:27N 38°02' W 122°08'0 0.0
2015-Jan-17 23:33N 38°02' W 122°08'0 0.0
2015-Jan-17 22:33N 38°02' W 122°08'0 0.0
2015-Jan-17 21:27N 38°02' W 122°08'0 0.0
2015-Jan-17 20:33N 38°02' W 122°08'0 0.0
2015-Jan-17 19:27N 38°02' W 122°08'0 0.0
2015-Jan-17 18:33N 38°02' W 122°08'2 2.0
2015-Jan-17 17:23N 38°03' W 122°11'7 8.3
2015-Jan-17 16:33N 38°03' W 122°19'9 8.7
2015-Jan-17 15:33N 37°57' W 122°27'8 8.4
2015-Jan-17 14:33N 37°49' W 122°30'1010.5
2015-Jan-17 13:34N 37°43' W 122°41'6 5.9
2015-Jan-17 12:33N 37°40' W 122°48'7 6.5
2015-Jan-17 11:33N 37°36' W 122°54'7 6.6
2015-Jan-17 10:33N 37°33' W 123°01'117 8.3
2015-Jan-16 20:27N 36°03' W 124°36'8 8.4
2015-Jan-16 19:33N 35°57' W 124°42'9 8.9
2015-Jan-16 18:32N 35°51' W 124°49'54 8.7
2015-Jan-16 12:17N 35°09' W 125°32'43 5.6
2015-Jan-16 04:30N 34°34' W 126°04'0 0.5
2015-Jan-16 03:33N 34°35' W 126°05'0 0.3
2015-Jan-16 02:23N 34°35' W 126°05'1 0.5
2015-Jan-16 01:12N 34°35' W 126°06'0 0.5
2015-Jan-16 00:32N 34°35' W 126°06'1 0.6
2015-Jan-15 23:19N 34°35' W 126°07'2 0.6
2015-Jan-15 20:14N 34°35' W 126°09'1 0.7
2015-Jan-15 19:27N 34°35' W 126°09'2 0.4
2015-Jan-15 15:25N 34°33' W 126°11'  
Track history (hours):
 
Tides and Currents Weather Stations Pressure Air Temp Water Temp Dewpoint Dewpoint Depression Visibility Wind Speed Wind Dir Waves Ship Positions

Overseas Mindoro

Last reported at 2015-Jan-22 07:04 UTC. Time now 2015-Jan-31 04:02 UTC.
Position N 30°10' W 118°27'.
Warning: this ship's position is 8 days out of date.

Length 238 m; draft 8.2 m.

Type: Tanker. MMSI: 538003473.

Date/timePositionNaut miles runAvg speedWind from/ knotsBaromVisibWave heightAir tempDewpointWater temp
2015-Jan-22 07:04N 30°10' W 118°27'814.6
2015-Jan-22 06:33N 30°17' W 118°31'1414.3
2015-Jan-22 05:33N 30°29' W 118°40'1514.7
2015-Jan-22 04:33N 30°42' W 118°48'1414.0
2015-Jan-22 03:33N 30°54' W 118°57'2613.0
2015-Jan-22 01:31N 31°16' W 119°12'3214.6
2015-Jan-21 23:20N 31°44' W 119°32'914.4
2015-Jan-21 22:42N 31°52' W 119°37'3614.4
2015-Jan-21 20:12N 32°21' W 120°02'6913.6
2015-Jan-21 15:06N 33°22' W 120°42'5614.2
2015-Jan-21 11:09N 34°12' W 121°11'5514.2
2015-Jan-21 07:16N 35°02' W 121°38'3014.3
2015-Jan-21 05:11N 35°30' W 121°52'3814.5
2015-Jan-21 02:33N 36°05' W 122°10'1414.0
2015-Jan-21 01:33N 36°18' W 122°18'1414.5
2015-Jan-21 00:33N 36°31' W 122°24'1414.3
2015-Jan-20 23:33N 36°44' W 122°31'1414.1
2015-Jan-20 22:33N 36°57' W 122°38'1514.5
2015-Jan-20 21:33N 37°11' W 122°44'1514.3
2015-Jan-20 20:30N 37°26' W 122°43'1314.1
2015-Jan-20 19:33N 37°40' W 122°43'1110.7
2015-Jan-20 18:33N 37°47' W 122°34'9 9.4
2015-Jan-20 17:33N 37°48' W 122°22'3 3.0
2015-Jan-20 16:31N 37°45' W 122°21'0 0.0
2015-Jan-20 15:31N 37°45' W 122°21'0 0.0
2015-Jan-20 14:31N 37°45' W 122°21'0 0.2
2015-Jan-20 13:31N 37°45' W 122°21'0 0.0
2015-Jan-20 12:31N 37°45' W 122°21'0 0.2
2015-Jan-20 11:33N 37°45' W 122°21'0 0.2
2015-Jan-20 10:32N 37°45' W 122°21'0 0.1
2015-Jan-20 09:32N 37°45' W 122°21'0 0.2
2015-Jan-20 08:32N 37°45' W 122°21'0 0.0
2015-Jan-20 07:32N 37°45' W 122°21'0 0.0
2015-Jan-20 06:32N 37°45' W 122°20'0 0.0
2015-Jan-20 05:32N 37°45' W 122°20'0 0.0
2015-Jan-20 04:26N 37°45' W 122°21'0 0.0
2015-Jan-20 03:23N 37°45' W 122°21'0 0.2
2015-Jan-20 02:18N 37°45' W 122°21'0 0.1
2015-Jan-20 01:32N 37°45' W 122°21'1 0.6
2015-Jan-20 00:34N 37°46' W 122°21'1312.5
2015-Jan-19 23:33N 37°57' W 122°27'1413.5
2015-Jan-19 22:33N 38°03' W 122°11'3 2.7
2015-Jan-19 21:27N 38°02' W 122°08'0 0.0
2015-Jan-19 20:33N 38°02' W 122°08'0 0.0
2015-Jan-19 19:09N 38°02' W 122°08'0 0.0
2015-Jan-19 18:27N 38°02' W 122°08'0 0.0
2015-Jan-19 17:27N 38°02' W 122°08'0 0.0
2015-Jan-19 16:15N 38°02' W 122°08'0 0.0
2015-Jan-19 15:27N 38°02' W 122°08'0 0.0
2015-Jan-19 14:33N 38°02' W 122°08'0 0.0
2015-Jan-19 13:27N 38°02' W 122°08'0 0.0
2015-Jan-19 12:33N 38°02' W 122°08'0 0.0
2015-Jan-19 10:15N 38°02' W 122°08'0 0.0
2015-Jan-19 09:33N 38°02' W 122°08'0 0.0
2015-Jan-19 08:33N 38°02' W 122°08'0 0.0
2015-Jan-19 07:33N 38°02' W 122°08'0 0.0
2015-Jan-19 06:33N 38°02' W 122°08'0 0.0
2015-Jan-19 05:21N 38°02' W 122°08'0 0.0
2015-Jan-19 04:33N 38°02' W 122°08'0 0.0
2015-Jan-19 03:27N 38°02' W 122°08'0 0.0
2015-Jan-19 02:33N 38°02' W 122°08'0 0.0
2015-Jan-19 01:33N 38°02' W 122°08'0 0.0
2015-Jan-19 00:33N 38°02' W 122°08'0 0.0
2015-Jan-18 23:33N 38°02' W 122°08'0 0.0
2015-Jan-18 22:33N 38°02' W 122°08'0 0.0
2015-Jan-18 21:33N 38°02' W 122°08'0 0.0
2015-Jan-18 20:33N 38°02' W 122°08'0 0.0
2015-Jan-18 19:21N 38°02' W 122°08'0 0.0
2015-Jan-18 18:33N 38°02' W 122°08'0 0.0
2015-Jan-18 17:21N 38°02' W 122°08'0 0.0
2015-Jan-18 16:21N 38°02' W 122°08'0 0.0
2015-Jan-18 15:27N 38°02' W 122°08'0 0.0
2015-Jan-18 14:27N 38°02' W 122°08'0 0.0
2015-Jan-18 13:33N 38°02' W 122°08'0 0.0
2015-Jan-18 12:21N 38°02' W 122°08'0 0.0
2015-Jan-18 11:27N 38°02' W 122°08'0 0.0
2015-Jan-18 09:33N 38°02' W 122°08'0 0.0
2015-Jan-18 08:15N 38°02' W 122°08'0 0.0
2015-Jan-18 06:21N 38°02' W 122°08'0 0.0
2015-Jan-18 02:21N 38°02' W 122°08'0 0.0
2015-Jan-18 00:27N 38°02' W 122°08'0 0.0
2015-Jan-17 23:33N 38°02' W 122°08'0 0.0
2015-Jan-17 22:33N 38°02' W 122°08'0 0.0
2015-Jan-17 21:27N 38°02' W 122°08'0 0.0
2015-Jan-17 20:33N 38°02' W 122°08'0 0.0
2015-Jan-17 19:27N 38°02' W 122°08'0 0.0
2015-Jan-17 18:33N 38°02' W 122°08'2 2.0
2015-Jan-17 17:23N 38°03' W 122°11'7 8.3
2015-Jan-17 16:33N 38°03' W 122°19'9 8.7
2015-Jan-17 15:33N 37°57' W 122°27'8 8.4
2015-Jan-17 14:33N 37°49' W 122°30'1010.5
2015-Jan-17 13:34N 37°43' W 122°41'6 5.9
2015-Jan-17 12:33N 37°40' W 122°48'7 6.5
2015-Jan-17 11:33N 37°36' W 122°54'7 6.6
2015-Jan-17 10:33N 37°33' W 123°01'117 8.3
2015-Jan-16 20:27N 36°03' W 124°36'8 8.4
2015-Jan-16 19:33N 35°57' W 124°42'9 8.9
2015-Jan-16 18:32N 35°51' W 124°49'54 8.7
2015-Jan-16 12:17N 35°09' W 125°32'43 5.6
2015-Jan-16 04:30N 34°34' W 126°04'0 0.5
2015-Jan-16 03:33N 34°35' W 126°05'0 0.3
2015-Jan-16 02:23N 34°35' W 126°05'1 0.5
2015-Jan-16 01:12N 34°35' W 126°06'0 0.5
2015-Jan-16 00:32N 34°35' W 126°06'1 0.6
2015-Jan-15 23:19N 34°35' W 126°07'2 0.6
2015-Jan-15 20:14N 34°35' W 126°09'1 0.7
2015-Jan-15 19:27N 34°35' W 126°09'2 0.4
2015-Jan-15 15:25N 34°33' W 126°11'  

Dump ship's entire track history